sensor_id;sensor_type;location;lat;lon;timestamp;P1;durP1;ratioP1;P2;durP2;ratioP2
14592;SDS011;7383;52.354;9.756;2023-05-16T00:00:29;6.75;;;6.28;;
14592;SDS011;7383;52.354;9.756;2023-05-16T00:02:59;5.32;;;5.03;;
14592;SDS011;7383;52.354;9.756;2023-05-16T00:05:25;5.68;;;5.38;;
14592;SDS011;7383;52.354;9.756;2023-05-16T00:07:53;5.90;;;5.47;;
14592;SDS011;7383;52.354;9.756;2023-05-16T00:10:21;5.38;;;4.97;;
14592;SDS011;7383;52.354;9.756;2023-05-16T00:12:49;5.88;;;5.47;;
14592;SDS011;7383;52.354;9.756;2023-05-16T00:15:18;6.35;;;5.80;;
14592;SDS011;7383;52.354;9.756;2023-05-16T00:17:47;6.43;;;5.97;;
14592;SDS011;7383;52.354;9.756;2023-05-16T00:20:14;6.78;;;6.18;;
14592;SDS011;7383;52.354;9.756;2023-05-16T00:22:43;5.90;;;5.50;;
14592;SDS011;7383;52.354;9.756;2023-05-16T00:25:10;5.72;;;5.32;;
14592;SDS011;7383;52.354;9.756;2023-05-16T00:27:38;5.22;;;4.93;;
14592;SDS011;7383;52.354;9.756;2023-05-16T00:30:08;6.38;;;5.88;;
14592;SDS011;7383;52.354;9.756;2023-05-16T00:32:35;6.20;;;5.80;;
14592;SDS011;7383;52.354;9.756;2023-05-16T00:35:02;6.20;;;5.78;;
14592;SDS011;7383;52.354;9.756;2023-05-16T00:37:28;5.68;;;5.32;;
14592;SDS011;7383;52.354;9.756;2023-05-16T00:39:55;5.80;;;5.40;;
14592;SDS011;7383;52.354;9.756;2023-05-16T00:42:21;5.70;;;5.30;;
14592;SDS011;7383;52.354;9.756;2023-05-16T00:44:48;5.45;;;5.05;;
14592;SDS011;7383;52.354;9.756;2023-05-16T00:47:16;5.53;;;5.22;;
14592;SDS011;7383;52.354;9.756;2023-05-16T00:49:45;5.45;;;5.00;;
14592;SDS011;7383;52.354;9.756;2023-05-16T00:52:14;6.05;;;5.55;;
14592;SDS011;7383;52.354;9.756;2023-05-16T00:54:40;5.57;;;5.07;;
14592;SDS011;7383;52.354;9.756;2023-05-16T00:57:07;5.43;;;5.03;;
14592;SDS011;7383;52.354;9.756;2023-05-16T00:59:34;6.00;;;5.60;;
14592;SDS011;7383;52.354;9.756;2023-05-16T01:02:04;5.05;;;4.65;;
14592;SDS011;7383;52.354;9.756;2023-05-16T01:04:32;4.13;;;3.88;;
14592;SDS011;7383;52.354;9.756;2023-05-16T01:06:58;3.17;;;2.97;;
14592;SDS011;7383;52.354;9.756;2023-05-16T01:09:26;3.28;;;3.08;;
14592;SDS011;7383;52.354;9.756;2023-05-16T01:11:55;3.40;;;3.20;;
14592;SDS011;7383;52.354;9.756;2023-05-16T01:14:28;3.05;;;2.85;;
14592;SDS011;7383;52.354;9.756;2023-05-16T01:17:04;3.15;;;2.95;;
14592;SDS011;7383;52.354;9.756;2023-05-16T01:19:43;4.63;;;3.22;;
14592;SDS011;7383;52.354;9.756;2023-05-16T01:22:23;3.15;;;2.90;;
14592;SDS011;7383;52.354;9.756;2023-05-16T01:25:01;3.38;;;3.15;;
14592;SDS011;7383;52.354;9.756;2023-05-16T01:27:33;3.00;;;2.80;;
14592;SDS011;7383;52.354;9.756;2023-05-16T01:30:09;3.25;;;3.05;;
14592;SDS011;7383;52.354;9.756;2023-05-16T01:32:38;3.30;;;3.10;;
14592;SDS011;7383;52.354;9.756;2023-05-16T01:35:05;2.90;;;2.72;;
14592;SDS011;7383;52.354;9.756;2023-05-16T01:37:35;4.10;;;3.80;;
14592;SDS011;7383;52.354;9.756;2023-05-16T01:40:08;3.75;;;3.45;;
14592;SDS011;7383;52.354;9.756;2023-05-16T01:42:43;3.03;;;2.85;;
14592;SDS011;7383;52.354;9.756;2023-05-16T01:45:13;4.15;;;3.60;;
14592;SDS011;7383;52.354;9.756;2023-05-16T01:47:46;3.88;;;3.45;;
14592;SDS011;7383;52.354;9.756;2023-05-16T01:50:18;4.32;;;4.03;;
14592;SDS011;7383;52.354;9.756;2023-05-16T01:52:49;3.55;;;3.33;;
14592;SDS011;7383;52.354;9.756;2023-05-16T01:55:20;3.33;;;3.13;;
14592;SDS011;7383;52.354;9.756;2023-05-16T01:57:52;3.88;;;3.55;;
14592;SDS011;7383;52.354;9.756;2023-05-16T02:00:20;3.67;;;3.38;;
14592;SDS011;7383;52.354;9.756;2023-05-16T02:02:47;2.92;;;2.80;;
14592;SDS011;7383;52.354;9.756;2023-05-16T02:05:13;2.97;;;2.67;;
14592;SDS011;7383;52.354;9.756;2023-05-16T02:07:40;3.50;;;3.30;;
14592;SDS011;7383;52.354;9.756;2023-05-16T02:10:08;3.30;;;3.10;;
14592;SDS011;7383;52.354;9.756;2023-05-16T02:12:36;3.25;;;2.95;;
14592;SDS011;7383;52.354;9.756;2023-05-16T02:15:05;3.47;;;3.10;;
14592;SDS011;7383;52.354;9.756;2023-05-16T02:17:32;3.60;;;3.40;;
14592;SDS011;7383;52.354;9.756;2023-05-16T02:19:59;3.90;;;3.13;;
14592;SDS011;7383;52.354;9.756;2023-05-16T02:22:30;3.20;;;3.00;;
14592;SDS011;7383;52.354;9.756;2023-05-16T02:24:57;2.97;;;2.60;;
14592;SDS011;7383;52.354;9.756;2023-05-16T02:27:25;2.45;;;2.35;;
14592;SDS011;7383;52.354;9.756;2023-05-16T02:29:52;3.13;;;2.92;;
14592;SDS011;7383;52.354;9.756;2023-05-16T02:32:20;3.65;;;3.35;;
14592;SDS011;7383;52.354;9.756;2023-05-16T02:34:46;2.70;;;2.50;;
14592;SDS011;7383;52.354;9.756;2023-05-16T02:37:13;2.97;;;2.78;;
14592;SDS011;7383;52.354;9.756;2023-05-16T02:39:40;3.10;;;2.90;;
14592;SDS011;7383;52.354;9.756;2023-05-16T02:42:08;3.15;;;2.85;;
14592;SDS011;7383;52.354;9.756;2023-05-16T02:44:34;3.10;;;2.90;;
14592;SDS011;7383;52.354;9.756;2023-05-16T02:47:01;2.75;;;2.55;;
14592;SDS011;7383;52.354;9.756;2023-05-16T02:49:29;2.55;;;2.35;;
14592;SDS011;7383;52.354;9.756;2023-05-16T02:51:55;2.90;;;2.70;;
14592;SDS011;7383;52.354;9.756;2023-05-16T02:54:22;2.40;;;2.20;;
14592;SDS011;7383;52.354;9.756;2023-05-16T02:56:48;2.03;;;1.90;;
14592;SDS011;7383;52.354;9.756;2023-05-16T02:59:15;2.47;;;2.28;;
14592;SDS011;7383;52.354;9.756;2023-05-16T03:01:41;2.20;;;2.03;;
14592;SDS011;7383;52.354;9.756;2023-05-16T03:04:07;2.97;;;2.13;;
14592;SDS011;7383;52.354;9.756;2023-05-16T03:06:35;3.00;;;2.10;;
14592;SDS011;7383;52.354;9.756;2023-05-16T03:09:02;2.50;;;2.22;;
14592;SDS011;7383;52.354;9.756;2023-05-16T03:11:28;2.58;;;2.38;;
14592;SDS011;7383;52.354;9.756;2023-05-16T03:13:55;2.30;;;2.10;;
14592;SDS011;7383;52.354;9.756;2023-05-16T03:16:24;2.10;;;1.98;;
14592;SDS011;7383;52.354;9.756;2023-05-16T03:18:51;2.67;;;2.03;;
14592;SDS011;7383;52.354;9.756;2023-05-16T03:21:17;1.80;;;1.70;;
14592;SDS011;7383;52.354;9.756;2023-05-16T03:23:45;3.50;;;1.80;;
14592;SDS011;7383;52.354;9.756;2023-05-16T03:26:11;2.20;;;1.90;;
14592;SDS011;7383;52.354;9.756;2023-05-16T03:28:38;2.15;;;1.70;;
14592;SDS011;7383;52.354;9.756;2023-05-16T03:31:04;2.75;;;1.73;;
14592;SDS011;7383;52.354;9.756;2023-05-16T03:33:31;2.70;;;1.90;;
14592;SDS011;7383;52.354;9.756;2023-05-16T03:35:57;3.10;;;1.90;;
14592;SDS011;7383;52.354;9.756;2023-05-16T03:38:24;2.63;;;1.98;;
14592;SDS011;7383;52.354;9.756;2023-05-16T03:40:52;2.17;;;1.98;;
14592;SDS011;7383;52.354;9.756;2023-05-16T03:43:18;2.17;;;1.98;;
14592;SDS011;7383;52.354;9.756;2023-05-16T03:45:45;3.83;;;1.65;;
14592;SDS011;7383;52.354;9.756;2023-05-16T03:48:11;1.75;;;1.65;;
14592;SDS011;7383;52.354;9.756;2023-05-16T03:50:38;2.92;;;1.83;;
14592;SDS011;7383;52.354;9.756;2023-05-16T03:53:04;3.05;;;2.20;;
14592;SDS011;7383;52.354;9.756;2023-05-16T03:55:31;2.38;;;1.83;;
14592;SDS011;7383;52.354;9.756;2023-05-16T03:57:58;2.00;;;1.60;;
14592;SDS011;7383;52.354;9.756;2023-05-16T04:00:26;2.92;;;1.80;;
14592;SDS011;7383;52.354;9.756;2023-05-16T04:02:53;3.38;;;1.70;;
14592;SDS011;7383;52.354;9.756;2023-05-16T04:05:20;2.25;;;1.65;;
14592;SDS011;7383;52.354;9.756;2023-05-16T04:07:47;1.88;;;1.77;;
14592;SDS011;7383;52.354;9.756;2023-05-16T04:10:13;2.90;;;1.73;;
14592;SDS011;7383;52.354;9.756;2023-05-16T04:12:41;1.73;;;1.52;;
14592;SDS011;7383;52.354;9.756;2023-05-16T04:15:10;2.70;;;2.10;;
14592;SDS011;7383;52.354;9.756;2023-05-16T04:17:36;1.85;;;1.70;;
14592;SDS011;7383;52.354;9.756;2023-05-16T04:20:03;1.90;;;1.55;;
14592;SDS011;7383;52.354;9.756;2023-05-16T04:22:31;4.75;;;2.10;;
14592;SDS011;7383;52.354;9.756;2023-05-16T04:24:57;1.73;;;1.60;;
14592;SDS011;7383;52.354;9.756;2023-05-16T04:27:24;2.42;;;1.95;;
14592;SDS011;7383;52.354;9.756;2023-05-16T04:29:50;2.00;;;1.77;;
14592;SDS011;7383;52.354;9.756;2023-05-16T04:32:18;2.50;;;1.60;;
14592;SDS011;7383;52.354;9.756;2023-05-16T04:34:45;2.45;;;1.55;;
14592;SDS011;7383;52.354;9.756;2023-05-16T04:37:12;3.50;;;2.03;;
14592;SDS011;7383;52.354;9.756;2023-05-16T04:39:38;4.55;;;2.08;;
14592;SDS011;7383;52.354;9.756;2023-05-16T04:42:05;3.28;;;2.03;;
14592;SDS011;7383;52.354;9.756;2023-05-16T04:44:31;2.83;;;1.63;;
14592;SDS011;7383;52.354;9.756;2023-05-16T04:46:58;3.20;;;1.73;;
14592;SDS011;7383;52.354;9.756;2023-05-16T04:49:26;3.40;;;1.90;;
14592;SDS011;7383;52.354;9.756;2023-05-16T04:51:53;2.53;;;1.88;;
14592;SDS011;7383;52.354;9.756;2023-05-16T04:54:19;3.15;;;1.80;;
14592;SDS011;7383;52.354;9.756;2023-05-16T04:56:45;2.50;;;1.70;;
14592;SDS011;7383;52.354;9.756;2023-05-16T04:59:12;3.92;;;2.00;;
14592;SDS011;7383;52.354;9.756;2023-05-16T05:01:39;3.05;;;1.70;;
14592;SDS011;7383;52.354;9.756;2023-05-16T05:04:07;3.67;;;2.05;;
14592;SDS011;7383;52.354;9.756;2023-05-16T05:06:35;2.80;;;1.70;;
14592;SDS011;7383;52.354;9.756;2023-05-16T05:09:02;4.78;;;2.03;;
14592;SDS011;7383;52.354;9.756;2023-05-16T05:11:29;3.03;;;1.83;;
14592;SDS011;7383;52.354;9.756;2023-05-16T05:13:56;4.28;;;1.88;;
14592;SDS011;7383;52.354;9.756;2023-05-16T05:16:22;5.13;;;2.28;;
14592;SDS011;7383;52.354;9.756;2023-05-16T05:18:49;3.58;;;2.13;;
14592;SDS011;7383;52.354;9.756;2023-05-16T05:21:16;3.53;;;1.85;;
14592;SDS011;7383;52.354;9.756;2023-05-16T05:23:45;4.25;;;2.13;;
14592;SDS011;7383;52.354;9.756;2023-05-16T05:26:13;4.93;;;1.75;;
14592;SDS011;7383;52.354;9.756;2023-05-16T05:28:40;5.28;;;1.88;;
14592;SDS011;7383;52.354;9.756;2023-05-16T05:31:06;4.07;;;2.03;;
14592;SDS011;7383;52.354;9.756;2023-05-16T05:33:33;5.13;;;2.00;;
14592;SDS011;7383;52.354;9.756;2023-05-16T05:35:59;3.10;;;1.60;;
14592;SDS011;7383;52.354;9.756;2023-05-16T05:38:26;4.30;;;1.83;;
14592;SDS011;7383;52.354;9.756;2023-05-16T05:40:54;3.47;;;2.13;;
14592;SDS011;7383;52.354;9.756;2023-05-16T05:43:20;6.72;;;2.35;;
14592;SDS011;7383;52.354;9.756;2023-05-16T05:45:47;2.63;;;1.60;;
14592;SDS011;7383;52.354;9.756;2023-05-16T05:48:14;4.03;;;2.20;;
14592;SDS011;7383;52.354;9.756;2023-05-16T05:50:40;3.95;;;1.63;;
14592;SDS011;7383;52.354;9.756;2023-05-16T05:53:07;3.85;;;1.60;;
14592;SDS011;7383;52.354;9.756;2023-05-16T05:55:33;4.43;;;1.90;;
14592;SDS011;7383;52.354;9.756;2023-05-16T05:58:01;3.05;;;1.92;;
14592;SDS011;7383;52.354;9.756;2023-05-16T06:00:27;4.32;;;1.50;;
14592;SDS011;7383;52.354;9.756;2023-05-16T06:02:54;4.65;;;1.80;;
14592;SDS011;7383;52.354;9.756;2023-05-16T06:05:21;4.90;;;1.55;;
14592;SDS011;7383;52.354;9.756;2023-05-16T06:07:47;4.00;;;1.60;;
14592;SDS011;7383;52.354;9.756;2023-05-16T06:10:14;3.60;;;1.67;;
14592;SDS011;7383;52.354;9.756;2023-05-16T06:12:40;3.25;;;1.77;;
14592;SDS011;7383;52.354;9.756;2023-05-16T06:15:09;4.13;;;1.60;;
14592;SDS011;7383;52.354;9.756;2023-05-16T06:17:37;4.60;;;2.05;;
14592;SDS011;7383;52.354;9.756;2023-05-16T06:20:03;3.53;;;1.55;;
14592;SDS011;7383;52.354;9.756;2023-05-16T06:22:31;4.18;;;1.73;;
14592;SDS011;7383;52.354;9.756;2023-05-16T06:24:57;4.32;;;1.77;;
14592;SDS011;7383;52.354;9.756;2023-05-16T06:27:24;3.58;;;1.70;;
14592;SDS011;7383;52.354;9.756;2023-05-16T06:29:50;3.92;;;1.88;;
14592;SDS011;7383;52.354;9.756;2023-05-16T06:32:18;2.70;;;1.60;;
14592;SDS011;7383;52.354;9.756;2023-05-16T06:34:45;3.60;;;1.70;;
14592;SDS011;7383;52.354;9.756;2023-05-16T06:37:11;5.70;;;1.77;;
14592;SDS011;7383;52.354;9.756;2023-05-16T06:39:37;3.75;;;1.73;;
14592;SDS011;7383;52.354;9.756;2023-05-16T06:42:04;4.47;;;2.15;;
14592;SDS011;7383;52.354;9.756;2023-05-16T06:44:31;2.70;;;1.50;;
14592;SDS011;7383;52.354;9.756;2023-05-16T06:46:57;2.95;;;1.60;;
14592;SDS011;7383;52.354;9.756;2023-05-16T06:49:25;2.28;;;1.40;;
14592;SDS011;7383;52.354;9.756;2023-05-16T06:51:52;5.18;;;1.90;;
14592;SDS011;7383;52.354;9.756;2023-05-16T06:54:18;3.58;;;1.60;;
14592;SDS011;7383;52.354;9.756;2023-05-16T06:56:47;3.20;;;1.80;;
14592;SDS011;7383;52.354;9.756;2023-05-16T06:59:15;2.95;;;1.60;;
14592;SDS011;7383;52.354;9.756;2023-05-16T07:01:42;3.17;;;1.60;;
14592;SDS011;7383;52.354;9.756;2023-05-16T07:04:09;3.72;;;1.60;;
14592;SDS011;7383;52.354;9.756;2023-05-16T07:06:37;3.55;;;1.60;;
14592;SDS011;7383;52.354;9.756;2023-05-16T07:09:03;3.58;;;1.65;;
14592;SDS011;7383;52.354;9.756;2023-05-16T07:11:30;4.28;;;1.70;;
14592;SDS011;7383;52.354;9.756;2023-05-16T07:13:56;3.55;;;1.83;;
14592;SDS011;7383;52.354;9.756;2023-05-16T07:16:24;3.50;;;1.60;;
14592;SDS011;7383;52.354;9.756;2023-05-16T07:18:52;3.75;;;1.95;;
14592;SDS011;7383;52.354;9.756;2023-05-16T07:21:18;4.60;;;1.60;;
14592;SDS011;7383;52.354;9.756;2023-05-16T07:23:46;4.05;;;1.75;;
14592;SDS011;7383;52.354;9.756;2023-05-16T07:26:12;3.15;;;1.33;;
14592;SDS011;7383;52.354;9.756;2023-05-16T07:28:39;3.63;;;1.80;;
14592;SDS011;7383;52.354;9.756;2023-05-16T07:31:06;2.55;;;1.40;;
14592;SDS011;7383;52.354;9.756;2023-05-16T07:33:33;1.63;;;1.13;;
14592;SDS011;7383;52.354;9.756;2023-05-16T07:36:00;3.55;;;1.58;;
14592;SDS011;7383;52.354;9.756;2023-05-16T07:38:26;2.03;;;1.08;;
14592;SDS011;7383;52.354;9.756;2023-05-16T07:40:54;1.85;;;1.20;;
14592;SDS011;7383;52.354;9.756;2023-05-16T07:43:20;2.17;;;1.13;;
14592;SDS011;7383;52.354;9.756;2023-05-16T07:45:46;2.65;;;1.10;;
14592;SDS011;7383;52.354;9.756;2023-05-16T07:48:13;2.45;;;1.23;;
14592;SDS011;7383;52.354;9.756;2023-05-16T07:50:39;2.05;;;1.05;;
14592;SDS011;7383;52.354;9.756;2023-05-16T07:53:06;1.88;;;1.20;;
14592;SDS011;7383;52.354;9.756;2023-05-16T07:55:32;4.07;;;1.10;;
14592;SDS011;7383;52.354;9.756;2023-05-16T07:58:00;3.42;;;1.25;;
14592;SDS011;7383;52.354;9.756;2023-05-16T08:00:28;2.63;;;1.20;;
14592;SDS011;7383;52.354;9.756;2023-05-16T08:02:55;2.45;;;1.30;;
14592;SDS011;7383;52.354;9.756;2023-05-16T08:05:23;2.15;;;1.58;;
14592;SDS011;7383;52.354;9.756;2023-05-16T08:07:49;3.55;;;1.20;;
14592;SDS011;7383;52.354;9.756;2023-05-16T08:10:16;4.32;;;1.45;;
14592;SDS011;7383;52.354;9.756;2023-05-16T08:12:42;3.13;;;1.40;;
14592;SDS011;7383;52.354;9.756;2023-05-16T08:15:11;2.60;;;1.20;;
14592;SDS011;7383;52.354;9.756;2023-05-16T08:17:39;2.50;;;1.17;;
14592;SDS011;7383;52.354;9.756;2023-05-16T08:20:06;3.17;;;1.13;;
14592;SDS011;7383;52.354;9.756;2023-05-16T08:22:33;2.15;;;1.30;;
14592;SDS011;7383;52.354;9.756;2023-05-16T08:24:59;2.50;;;1.10;;
14592;SDS011;7383;52.354;9.756;2023-05-16T08:27:26;1.65;;;1.00;;
14592;SDS011;7383;52.354;9.756;2023-05-16T08:29:53;2.60;;;0.95;;
14592;SDS011;7383;52.354;9.756;2023-05-16T08:32:21;2.55;;;1.15;;
14592;SDS011;7383;52.354;9.756;2023-05-16T08:34:49;3.05;;;1.33;;
14592;SDS011;7383;52.354;9.756;2023-05-16T08:37:15;1.17;;;1.02;;
14592;SDS011;7383;52.354;9.756;2023-05-16T08:39:43;1.25;;;1.08;;
14592;SDS011;7383;52.354;9.756;2023-05-16T08:42:10;2.17;;;1.15;;
14592;SDS011;7383;52.354;9.756;2023-05-16T08:44:40;2.55;;;1.05;;
14592;SDS011;7383;52.354;9.756;2023-05-16T08:47:09;3.30;;;1.10;;
14592;SDS011;7383;52.354;9.756;2023-05-16T08:49:39;1.83;;;0.98;;
14592;SDS011;7383;52.354;9.756;2023-05-16T08:52:07;2.05;;;1.33;;
14592;SDS011;7383;52.354;9.756;2023-05-16T08:54:35;3.47;;;1.40;;
14592;SDS011;7383;52.354;9.756;2023-05-16T08:57:02;2.67;;;1.30;;
14592;SDS011;7383;52.354;9.756;2023-05-16T08:59:28;2.35;;;0.82;;
14592;SDS011;7383;52.354;9.756;2023-05-16T09:01:56;2.15;;;1.27;;
14592;SDS011;7383;52.354;9.756;2023-05-16T09:04:23;3.00;;;1.23;;
14592;SDS011;7383;52.354;9.756;2023-05-16T09:06:52;2.05;;;1.40;;
14592;SDS011;7383;52.354;9.756;2023-05-16T09:09:19;2.25;;;1.08;;
14592;SDS011;7383;52.354;9.756;2023-05-16T09:11:45;1.58;;;0.98;;
14592;SDS011;7383;52.354;9.756;2023-05-16T09:14:12;2.88;;;1.20;;
14592;SDS011;7383;52.354;9.756;2023-05-16T09:16:39;2.40;;;1.40;;
14592;SDS011;7383;52.354;9.756;2023-05-16T09:19:05;1.90;;;1.10;;
14592;SDS011;7383;52.354;9.756;2023-05-16T09:21:32;2.95;;;1.05;;
14592;SDS011;7383;52.354;9.756;2023-05-16T09:24:05;2.35;;;1.50;;
14592;SDS011;7383;52.354;9.756;2023-05-16T09:26:33;2.03;;;1.10;;
14592;SDS011;7383;52.354;9.756;2023-05-16T09:29:01;2.10;;;1.33;;
14592;SDS011;7383;52.354;9.756;2023-05-16T09:31:28;2.45;;;1.10;;
14592;SDS011;7383;52.354;9.756;2023-05-16T09:34:02;1.67;;;1.08;;
14592;SDS011;7383;52.354;9.756;2023-05-16T09:36:30;1.35;;;0.90;;
14592;SDS011;7383;52.354;9.756;2023-05-16T09:38:57;1.17;;;0.85;;
14592;SDS011;7383;52.354;9.756;2023-05-16T09:41:31;1.42;;;1.00;;
14592;SDS011;7383;52.354;9.756;2023-05-16T09:43:58;0.95;;;0.82;;
14592;SDS011;7383;52.354;9.756;2023-05-16T09:46:24;1.30;;;0.90;;
14592;SDS011;7383;52.354;9.756;2023-05-16T09:48:52;1.95;;;1.00;;
14592;SDS011;7383;52.354;9.756;2023-05-16T09:51:20;1.08;;;0.80;;
14592;SDS011;7383;52.354;9.756;2023-05-16T09:53:47;1.70;;;1.10;;
14592;SDS011;7383;52.354;9.756;2023-05-16T09:56:14;1.95;;;1.13;;
14592;SDS011;7383;52.354;9.756;2023-05-16T09:58:43;1.50;;;0.77;;
14592;SDS011;7383;52.354;9.756;2023-05-16T10:01:10;1.60;;;0.95;;
14592;SDS011;7383;52.354;9.756;2023-05-16T10:03:38;2.35;;;1.05;;
14592;SDS011;7383;52.354;9.756;2023-05-16T10:06:05;2.88;;;1.10;;
14592;SDS011;7383;52.354;9.756;2023-05-16T10:08:33;1.73;;;1.00;;
14592;SDS011;7383;52.354;9.756;2023-05-16T10:11:02;2.67;;;1.05;;
14592;SDS011;7383;52.354;9.756;2023-05-16T10:13:30;1.88;;;1.15;;
14592;SDS011;7383;52.354;9.756;2023-05-16T10:15:59;1.42;;;0.93;;
14592;SDS011;7383;52.354;9.756;2023-05-16T10:18:31;1.83;;;0.88;;
14592;SDS011;7383;52.354;9.756;2023-05-16T10:21:00;1.73;;;1.10;;
14592;SDS011;7383;52.354;9.756;2023-05-16T10:23:32;2.65;;;1.20;;
14592;SDS011;7383;52.354;9.756;2023-05-16T10:25:59;1.63;;;0.90;;
14592;SDS011;7383;52.354;9.756;2023-05-16T10:28:28;2.05;;;1.38;;
14592;SDS011;7383;52.354;9.756;2023-05-16T10:30:57;1.85;;;0.90;;
14592;SDS011;7383;52.354;9.756;2023-05-16T10:33:27;0.82;;;0.68;;
14592;SDS011;7383;52.354;9.756;2023-05-16T10:35:54;1.98;;;1.17;;
14592;SDS011;7383;52.354;9.756;2023-05-16T10:38:20;1.58;;;1.10;;
14592;SDS011;7383;52.354;9.756;2023-05-16T10:40:48;1.85;;;0.95;;
14592;SDS011;7383;52.354;9.756;2023-05-16T10:43:22;1.38;;;0.70;;
14592;SDS011;7383;52.354;9.756;2023-05-16T10:45:53;0.70;;;0.68;;
14592;SDS011;7383;52.354;9.756;2023-05-16T10:48:28;1.52;;;0.88;;
14592;SDS011;7383;52.354;9.756;2023-05-16T10:50:55;1.83;;;1.10;;
14592;SDS011;7383;52.354;9.756;2023-05-16T10:53:22;1.75;;;1.00;;
14592;SDS011;7383;52.354;9.756;2023-05-16T10:56:08;2.28;;;0.98;;
14592;SDS011;7383;52.354;9.756;2023-05-16T10:58:40;1.02;;;0.63;;
14592;SDS011;7383;52.354;9.756;2023-05-16T11:01:13;2.90;;;0.93;;
14592;SDS011;7383;52.354;9.756;2023-05-16T11:03:53;2.63;;;0.80;;
14592;SDS011;7383;52.354;9.756;2023-05-16T11:06:26;1.08;;;0.80;;
14592;SDS011;7383;52.354;9.756;2023-05-16T11:09:03;1.88;;;0.80;;
14592;SDS011;7383;52.354;9.756;2023-05-16T11:11:42;1.75;;;0.65;;
14592;SDS011;7383;52.354;9.756;2023-05-16T11:14:16;0.82;;;0.60;;
14592;SDS011;7383;52.354;9.756;2023-05-16T11:16:47;1.88;;;0.70;;
14592;SDS011;7383;52.354;9.756;2023-05-16T11:19:26;1.75;;;0.82;;
14592;SDS011;7383;52.354;9.756;2023-05-16T11:22:07;0.63;;;0.52;;
14592;SDS011;7383;52.354;9.756;2023-05-16T11:24:36;1.08;;;0.80;;
14592;SDS011;7383;52.354;9.756;2023-05-16T11:27:03;1.27;;;0.93;;
14592;SDS011;7383;52.354;9.756;2023-05-16T11:29:31;1.30;;;0.63;;
14592;SDS011;7383;52.354;9.756;2023-05-16T11:32:00;2.20;;;0.98;;
14592;SDS011;7383;52.354;9.756;2023-05-16T11:34:35;2.63;;;1.38;;
14592;SDS011;7383;52.354;9.756;2023-05-16T11:38:02;1.52;;;0.90;;
14592;SDS011;7383;52.354;9.756;2023-05-16T11:41:02;2.58;;;0.90;;
14592;SDS011;7383;52.354;9.756;2023-05-16T11:43:36;1.83;;;0.80;;
14592;SDS011;7383;52.354;9.756;2023-05-16T11:47:20;1.75;;;0.95;;
14592;SDS011;7383;52.354;9.756;2023-05-16T11:49:51;1.02;;;0.93;;
14592;SDS011;7383;52.354;9.756;2023-05-16T11:52:30;1.95;;;1.08;;
14592;SDS011;7383;52.354;9.756;2023-05-16T11:55:24;2.17;;;1.55;;
14592;SDS011;7383;52.354;9.756;2023-05-16T11:58:26;1.30;;;0.88;;
14592;SDS011;7383;52.354;9.756;2023-05-16T12:01:06;1.88;;;0.80;;
14592;SDS011;7383;52.354;9.756;2023-05-16T12:03:34;0.77;;;0.75;;
14592;SDS011;7383;52.354;9.756;2023-05-16T12:06:11;1.48;;;1.00;;
14592;SDS011;7383;52.354;9.756;2023-05-16T12:08:37;0.90;;;0.60;;
14592;SDS011;7383;52.354;9.756;2023-05-16T12:11:06;1.38;;;0.82;;
14592;SDS011;7383;52.354;9.756;2023-05-16T12:13:35;1.85;;;1.00;;
14592;SDS011;7383;52.354;9.756;2023-05-16T12:16:01;0.80;;;0.80;;
14592;SDS011;7383;52.354;9.756;2023-05-16T12:18:28;1.23;;;0.80;;
14592;SDS011;7383;52.354;9.756;2023-05-16T12:20:55;1.95;;;1.00;;
14592;SDS011;7383;52.354;9.756;2023-05-16T12:23:23;2.45;;;1.08;;
14592;SDS011;7383;52.354;9.756;2023-05-16T12:25:51;0.88;;;0.70;;
14592;SDS011;7383;52.354;9.756;2023-05-16T12:28:21;2.53;;;0.95;;
14592;SDS011;7383;52.354;9.756;2023-05-16T12:30:47;1.17;;;1.08;;
14592;SDS011;7383;52.354;9.756;2023-05-16T12:33:14;2.22;;;1.05;;
14592;SDS011;7383;52.354;9.756;2023-05-16T12:35:41;3.33;;;1.13;;
14592;SDS011;7383;52.354;9.756;2023-05-16T12:38:10;1.88;;;0.82;;
14592;SDS011;7383;52.354;9.756;2023-05-16T12:40:41;0.60;;;0.60;;
14592;SDS011;7383;52.354;9.756;2023-05-16T12:43:12;1.42;;;0.85;;
14592;SDS011;7383;52.354;9.756;2023-05-16T12:45:38;1.88;;;1.40;;
14592;SDS011;7383;52.354;9.756;2023-05-16T12:48:07;1.40;;;0.82;;
14592;SDS011;7383;52.354;9.756;2023-05-16T12:50:37;2.30;;;1.20;;
14592;SDS011;7383;52.354;9.756;2023-05-16T12:53:09;1.77;;;1.10;;
14592;SDS011;7383;52.354;9.756;2023-05-16T12:55:37;0.95;;;0.80;;
14592;SDS011;7383;52.354;9.756;2023-05-16T12:58:05;2.17;;;1.20;;
14592;SDS011;7383;52.354;9.756;2023-05-16T13:00:34;1.75;;;1.10;;
14592;SDS011;7383;52.354;9.756;2023-05-16T13:03:03;1.48;;;1.10;;
14592;SDS011;7383;52.354;9.756;2023-05-16T13:05:30;1.75;;;1.30;;
14592;SDS011;7383;52.354;9.756;2023-05-16T13:07:58;1.63;;;1.02;;
14592;SDS011;7383;52.354;9.756;2023-05-16T13:10:25;1.70;;;1.08;;
14592;SDS011;7383;52.354;9.756;2023-05-16T13:12:51;1.73;;;1.00;;
14592;SDS011;7383;52.354;9.756;2023-05-16T13:15:19;1.95;;;1.00;;
14592;SDS011;7383;52.354;9.756;2023-05-16T13:17:46;1.75;;;1.02;;
14592;SDS011;7383;52.354;9.756;2023-05-16T13:20:12;1.30;;;0.90;;
14592;SDS011;7383;52.354;9.756;2023-05-16T13:22:39;1.17;;;1.08;;
14592;SDS011;7383;52.354;9.756;2023-05-16T13:25:07;1.40;;;1.10;;
14592;SDS011;7383;52.354;9.756;2023-05-16T13:27:34;1.65;;;1.27;;
14592;SDS011;7383;52.354;9.756;2023-05-16T13:30:01;0.63;;;0.63;;
14592;SDS011;7383;52.354;9.756;2023-05-16T13:32:29;1.60;;;1.08;;
14592;SDS011;7383;52.354;9.756;2023-05-16T13:34:56;1.08;;;0.98;;
14592;SDS011;7383;52.354;9.756;2023-05-16T13:37:23;1.90;;;0.77;;
14592;SDS011;7383;52.354;9.756;2023-05-16T13:39:50;1.23;;;0.52;;
14592;SDS011;7383;52.354;9.756;2023-05-16T13:42:18;1.58;;;0.82;;
14592;SDS011;7383;52.354;9.756;2023-05-16T13:44:45;0.93;;;0.80;;
14592;SDS011;7383;52.354;9.756;2023-05-16T13:47:11;1.55;;;0.60;;
14592;SDS011;7383;52.354;9.756;2023-05-16T13:49:39;1.48;;;0.77;;
14592;SDS011;7383;52.354;9.756;2023-05-16T13:52:06;0.77;;;0.77;;
14592;SDS011;7383;52.354;9.756;2023-05-16T13:54:32;0.57;;;0.57;;
14592;SDS011;7383;52.354;9.756;2023-05-16T13:56:59;1.40;;;0.80;;
14592;SDS011;7383;52.354;9.756;2023-05-16T13:59:28;0.88;;;0.57;;
14592;SDS011;7383;52.354;9.756;2023-05-16T14:01:55;1.38;;;0.90;;
14592;SDS011;7383;52.354;9.756;2023-05-16T14:04:21;1.77;;;0.95;;
14592;SDS011;7383;52.354;9.756;2023-05-16T14:06:52;0.98;;;0.88;;
14592;SDS011;7383;52.354;9.756;2023-05-16T14:09:19;1.35;;;0.95;;
14592;SDS011;7383;52.354;9.756;2023-05-16T14:11:45;0.65;;;0.65;;
14592;SDS011;7383;52.354;9.756;2023-05-16T14:14:15;1.13;;;0.85;;
14592;SDS011;7383;52.354;9.756;2023-05-16T14:16:43;1.67;;;0.90;;
14592;SDS011;7383;52.354;9.756;2023-05-16T14:19:14;1.38;;;0.73;;
14592;SDS011;7383;52.354;9.756;2023-05-16T14:21:40;0.88;;;0.82;;
14592;SDS011;7383;52.354;9.756;2023-05-16T14:24:08;0.98;;;0.70;;
14592;SDS011;7383;52.354;9.756;2023-05-16T14:26:37;1.25;;;1.13;;
14592;SDS011;7383;52.354;9.756;2023-05-16T14:29:04;0.73;;;0.70;;
14592;SDS011;7383;52.354;9.756;2023-05-16T14:31:31;0.80;;;0.60;;
14592;SDS011;7383;52.354;9.756;2023-05-16T14:34:00;1.02;;;0.75;;
14592;SDS011;7383;52.354;9.756;2023-05-16T14:36:26;1.73;;;0.90;;
14592;SDS011;7383;52.354;9.756;2023-05-16T14:38:53;0.73;;;0.55;;
14592;SDS011;7383;52.354;9.756;2023-05-16T14:41:23;0.80;;;0.60;;
14592;SDS011;7383;52.354;9.756;2023-05-16T14:43:50;1.90;;;0.70;;
14592;SDS011;7383;52.354;9.756;2023-05-16T14:46:17;0.47;;;0.45;;
14592;SDS011;7383;52.354;9.756;2023-05-16T14:48:43;0.63;;;0.63;;
14592;SDS011;7383;52.354;9.756;2023-05-16T14:51:10;1.23;;;0.60;;
14592;SDS011;7383;52.354;9.756;2023-05-16T14:53:36;0.82;;;0.65;;
14592;SDS011;7383;52.354;9.756;2023-05-16T14:56:03;0.52;;;0.50;;
14592;SDS011;7383;52.354;9.756;2023-05-16T14:58:31;1.13;;;0.55;;
14592;SDS011;7383;52.354;9.756;2023-05-16T15:00:58;1.23;;;0.50;;
14592;SDS011;7383;52.354;9.756;2023-05-16T15:03:25;0.80;;;0.68;;
14592;SDS011;7383;52.354;9.756;2023-05-16T15:05:53;1.90;;;0.80;;
14592;SDS011;7383;52.354;9.756;2023-05-16T15:08:20;1.60;;;0.95;;